sensor_id;sensor_type;location;lat;lon;timestamp;P1;durP1;ratioP1;P2;durP2;ratioP2
18228;SDS011;9239;50.932;3.142;2024-02-21T00:02:20;3.77;;;3.13;;
18228;SDS011;9239;50.932;3.142;2024-02-21T00:04:47;3.53;;;3.23;;
18228;SDS011;9239;50.932;3.142;2024-02-21T00:07:14;3.90;;;3.50;;
18228;SDS011;9239;50.932;3.142;2024-02-21T00:09:41;6.40;;;3.33;;
18228;SDS011;9239;50.932;3.142;2024-02-21T00:12:09;4.10;;;3.50;;
18228;SDS011;9239;50.932;3.142;2024-02-21T00:14:39;4.57;;;3.50;;
18228;SDS011;9239;50.932;3.142;2024-02-21T00:17:06;4.00;;;3.70;;
18228;SDS011;9239;50.932;3.142;2024-02-21T00:19:33;4.30;;;3.47;;
18228;SDS011;9239;50.932;3.142;2024-02-21T00:22:01;6.03;;;3.90;;
18228;SDS011;9239;50.932;3.142;2024-02-21T00:24:28;5.60;;;3.70;;
18228;SDS011;9239;50.932;3.142;2024-02-21T00:26:55;4.37;;;3.97;;
18228;SDS011;9239;50.932;3.142;2024-02-21T00:29:23;4.53;;;3.70;;
18228;SDS011;9239;50.932;3.142;2024-02-21T00:31:51;4.77;;;4.07;;
18228;SDS011;9239;50.932;3.142;2024-02-21T00:34:18;4.77;;;3.50;;
18228;SDS011;9239;50.932;3.142;2024-02-21T00:36:44;5.90;;;4.20;;
18228;SDS011;9239;50.932;3.142;2024-02-21T00:39:11;6.23;;;4.63;;
18228;SDS011;9239;50.932;3.142;2024-02-21T00:41:38;6.47;;;4.63;;
18228;SDS011;9239;50.932;3.142;2024-02-21T00:44:05;5.13;;;4.10;;
18228;SDS011;9239;50.932;3.142;2024-02-21T00:46:33;5.43;;;4.40;;
18228;SDS011;9239;50.932;3.142;2024-02-21T00:49:00;6.60;;;4.53;;
18228;SDS011;9239;50.932;3.142;2024-02-21T00:51:27;5.90;;;3.63;;
18228;SDS011;9239;50.932;3.142;2024-02-21T00:53:54;4.93;;;4.30;;
18228;SDS011;9239;50.932;3.142;2024-02-21T00:56:21;7.30;;;4.53;;
18228;SDS011;9239;50.932;3.142;2024-02-21T00:58:48;4.53;;;4.10;;
18228;SDS011;9239;50.932;3.142;2024-02-21T01:01:20;5.93;;;4.67;;
18228;SDS011;9239;50.932;3.142;2024-02-21T01:03:49;4.90;;;4.40;;
18228;SDS011;9239;50.932;3.142;2024-02-21T01:06:18;5.50;;;5.00;;
18228;SDS011;9239;50.932;3.142;2024-02-21T01:08:45;7.13;;;4.53;;
18228;SDS011;9239;50.932;3.142;2024-02-21T01:11:12;10.63;;;6.00;;
18228;SDS011;9239;50.932;3.142;2024-02-21T01:13:40;7.50;;;5.33;;
18228;SDS011;9239;50.932;3.142;2024-02-21T01:16:07;5.53;;;4.50;;
18228;SDS011;9239;50.932;3.142;2024-02-21T01:18:34;8.43;;;5.83;;
18228;SDS011;9239;50.932;3.142;2024-02-21T01:21:02;8.80;;;6.30;;
18228;SDS011;9239;50.932;3.142;2024-02-21T01:23:32;6.53;;;5.43;;
18228;SDS011;9239;50.932;3.142;2024-02-21T01:25:59;8.40;;;6.37;;
18228;SDS011;9239;50.932;3.142;2024-02-21T01:28:26;6.93;;;5.77;;
18228;SDS011;9239;50.932;3.142;2024-02-21T01:30:53;7.13;;;6.43;;
18228;SDS011;9239;50.932;3.142;2024-02-21T01:33:20;8.73;;;6.83;;
18228;SDS011;9239;50.932;3.142;2024-02-21T01:35:46;10.80;;;7.87;;
18228;SDS011;9239;50.932;3.142;2024-02-21T01:38:16;9.57;;;7.63;;
18228;SDS011;9239;50.932;3.142;2024-02-21T01:40:42;10.30;;;7.63;;
18228;SDS011;9239;50.932;3.142;2024-02-21T01:43:15;9.73;;;8.10;;
18228;SDS011;9239;50.932;3.142;2024-02-21T01:45:43;10.50;;;9.40;;
18228;SDS011;9239;50.932;3.142;2024-02-21T01:48:13;11.80;;;9.50;;
18228;SDS011;9239;50.932;3.142;2024-02-21T01:50:39;11.30;;;9.40;;
18228;SDS011;9239;50.932;3.142;2024-02-21T01:53:06;13.13;;;9.50;;
18228;SDS011;9239;50.932;3.142;2024-02-21T01:55:35;12.13;;;10.40;;
18228;SDS011;9239;50.932;3.142;2024-02-21T01:58:02;15.10;;;10.57;;
18228;SDS011;9239;50.932;3.142;2024-02-21T02:00:29;11.80;;;10.60;;
18228;SDS011;9239;50.932;3.142;2024-02-21T02:02:58;15.97;;;10.23;;
18228;SDS011;9239;50.932;3.142;2024-02-21T02:05:25;14.20;;;9.50;;
18228;SDS011;9239;50.932;3.142;2024-02-21T02:07:53;12.00;;;10.13;;
18228;SDS011;9239;50.932;3.142;2024-02-21T02:10:20;15.03;;;10.07;;
18228;SDS011;9239;50.932;3.142;2024-02-21T02:12:48;17.40;;;9.80;;
18228;SDS011;9239;50.932;3.142;2024-02-21T02:15:15;12.50;;;9.50;;
18228;SDS011;9239;50.932;3.142;2024-02-21T02:17:42;15.67;;;10.23;;
18228;SDS011;9239;50.932;3.142;2024-02-21T02:20:09;17.30;;;9.93;;
18228;SDS011;9239;50.932;3.142;2024-02-21T02:22:37;14.30;;;10.83;;
18228;SDS011;9239;50.932;3.142;2024-02-21T02:25:09;15.93;;;9.53;;
18228;SDS011;9239;50.932;3.142;2024-02-21T02:27:41;13.57;;;9.83;;
18228;SDS011;9239;50.932;3.142;2024-02-21T02:30:10;11.27;;;8.97;;
18228;SDS011;9239;50.932;3.142;2024-02-21T02:32:38;15.50;;;9.23;;
18228;SDS011;9239;50.932;3.142;2024-02-21T02:35:05;13.37;;;9.93;;
18228;SDS011;9239;50.932;3.142;2024-02-21T02:37:32;16.90;;;9.50;;
18228;SDS011;9239;50.932;3.142;2024-02-21T02:39:59;13.50;;;8.67;;
18228;SDS011;9239;50.932;3.142;2024-02-21T02:42:27;19.47;;;9.37;;
18228;SDS011;9239;50.932;3.142;2024-02-21T02:44:54;14.00;;;8.73;;
18228;SDS011;9239;50.932;3.142;2024-02-21T02:47:22;15.20;;;8.47;;
18228;SDS011;9239;50.932;3.142;2024-02-21T02:49:49;15.13;;;8.90;;
18228;SDS011;9239;50.932;3.142;2024-02-21T02:52:16;14.47;;;9.63;;
18228;SDS011;9239;50.932;3.142;2024-02-21T02:54:43;13.07;;;9.13;;
18228;SDS011;9239;50.932;3.142;2024-02-21T02:57:11;13.77;;;8.60;;
18228;SDS011;9239;50.932;3.142;2024-02-21T02:59:39;14.20;;;8.53;;
18228;SDS011;9239;50.932;3.142;2024-02-21T03:02:06;16.67;;;9.40;;
18228;SDS011;9239;50.932;3.142;2024-02-21T03:04:33;12.17;;;9.47;;
18228;SDS011;9239;50.932;3.142;2024-02-21T03:07:00;16.33;;;9.10;;
18228;SDS011;9239;50.932;3.142;2024-02-21T03:09:27;13.53;;;9.33;;
18228;SDS011;9239;50.932;3.142;2024-02-21T03:11:54;15.40;;;8.47;;
18228;SDS011;9239;50.932;3.142;2024-02-21T03:14:27;15.40;;;8.77;;
18228;SDS011;9239;50.932;3.142;2024-02-21T03:16:55;14.80;;;9.30;;
18228;SDS011;9239;50.932;3.142;2024-02-21T03:19:23;15.83;;;9.27;;
18228;SDS011;9239;50.932;3.142;2024-02-21T03:21:49;16.53;;;8.77;;
18228;SDS011;9239;50.932;3.142;2024-02-21T03:24:17;12.80;;;8.43;;
18228;SDS011;9239;50.932;3.142;2024-02-21T03:26:44;12.33;;;8.60;;
18228;SDS011;9239;50.932;3.142;2024-02-21T03:29:12;13.30;;;8.60;;
18228;SDS011;9239;50.932;3.142;2024-02-21T03:31:40;14.43;;;8.87;;
18228;SDS011;9239;50.932;3.142;2024-02-21T03:34:09;16.40;;;9.73;;
18228;SDS011;9239;50.932;3.142;2024-02-21T03:36:37;15.13;;;8.60;;
18228;SDS011;9239;50.932;3.142;2024-02-21T03:39:04;14.57;;;8.57;;
18228;SDS011;9239;50.932;3.142;2024-02-21T03:41:30;13.40;;;8.67;;
18228;SDS011;9239;50.932;3.142;2024-02-21T03:43:57;11.27;;;8.83;;
18228;SDS011;9239;50.932;3.142;2024-02-21T03:46:24;15.70;;;9.43;;
18228;SDS011;9239;50.932;3.142;2024-02-21T03:48:51;10.77;;;8.43;;
18228;SDS011;9239;50.932;3.142;2024-02-21T03:51:19;16.73;;;8.90;;
18228;SDS011;9239;50.932;3.142;2024-02-21T03:53:46;17.27;;;10.17;;
18228;SDS011;9239;50.932;3.142;2024-02-21T03:56:13;13.87;;;9.13;;
18228;SDS011;9239;50.932;3.142;2024-02-21T03:58:40;14.63;;;8.73;;
18228;SDS011;9239;50.932;3.142;2024-02-21T04:01:07;13.07;;;8.73;;
18228;SDS011;9239;50.932;3.142;2024-02-21T04:03:35;12.80;;;7.80;;
18228;SDS011;9239;50.932;3.142;2024-02-21T04:06:02;13.93;;;9.00;;
18228;SDS011;9239;50.932;3.142;2024-02-21T04:08:31;10.43;;;8.90;;
18228;SDS011;9239;50.932;3.142;2024-02-21T04:10:58;16.77;;;9.10;;
18228;SDS011;9239;50.932;3.142;2024-02-21T04:13:25;12.23;;;9.13;;
18228;SDS011;9239;50.932;3.142;2024-02-21T04:15:52;16.87;;;8.90;;
18228;SDS011;9239;50.932;3.142;2024-02-21T04:18:19;12.47;;;9.30;;
18228;SDS011;9239;50.932;3.142;2024-02-21T04:20:46;18.27;;;10.27;;
18228;SDS011;9239;50.932;3.142;2024-02-21T04:23:13;14.30;;;8.07;;
18228;SDS011;9239;50.932;3.142;2024-02-21T04:25:41;13.77;;;9.67;;
18228;SDS011;9239;50.932;3.142;2024-02-21T04:28:08;14.07;;;8.90;;
18228;SDS011;9239;50.932;3.142;2024-02-21T04:30:35;12.73;;;8.37;;
18228;SDS011;9239;50.932;3.142;2024-02-21T04:33:02;11.27;;;8.10;;
18228;SDS011;9239;50.932;3.142;2024-02-21T04:35:29;14.80;;;9.13;;
18228;SDS011;9239;50.932;3.142;2024-02-21T04:37:56;13.00;;;8.17;;
18228;SDS011;9239;50.932;3.142;2024-02-21T04:40:23;12.60;;;8.47;;
18228;SDS011;9239;50.932;3.142;2024-02-21T04:42:52;15.77;;;8.20;;
18228;SDS011;9239;50.932;3.142;2024-02-21T04:45:18;9.73;;;7.73;;
18228;SDS011;9239;50.932;3.142;2024-02-21T04:47:45;12.80;;;8.60;;
18228;SDS011;9239;50.932;3.142;2024-02-21T04:50:12;12.87;;;9.30;;
18228;SDS011;9239;50.932;3.142;2024-02-21T04:52:39;15.63;;;9.40;;
18228;SDS011;9239;50.932;3.142;2024-02-21T04:55:07;11.83;;;9.23;;
18228;SDS011;9239;50.932;3.142;2024-02-21T04:57:34;12.57;;;8.33;;
18228;SDS011;9239;50.932;3.142;2024-02-21T05:00:03;13.53;;;8.80;;
18228;SDS011;9239;50.932;3.142;2024-02-21T05:02:31;12.20;;;8.10;;
18228;SDS011;9239;50.932;3.142;2024-02-21T05:04:58;12.17;;;8.90;;
18228;SDS011;9239;50.932;3.142;2024-02-21T05:07:25;11.20;;;9.00;;
18228;SDS011;9239;50.932;3.142;2024-02-21T05:09:52;14.10;;;8.67;;
18228;SDS011;9239;50.932;3.142;2024-02-21T05:12:19;13.13;;;8.10;;
18228;SDS011;9239;50.932;3.142;2024-02-21T05:14:46;12.17;;;8.23;;
18228;SDS011;9239;50.932;3.142;2024-02-21T05:17:15;11.67;;;8.43;;
18228;SDS011;9239;50.932;3.142;2024-02-21T05:19:42;13.53;;;12.00;;
18228;SDS011;9239;50.932;3.142;2024-02-21T05:22:08;13.40;;;9.67;;
18228;SDS011;9239;50.932;3.142;2024-02-21T05:24:35;13.47;;;9.17;;
18228;SDS011;9239;50.932;3.142;2024-02-21T05:27:02;15.53;;;9.10;;
18228;SDS011;9239;50.932;3.142;2024-02-21T05:29:29;17.43;;;8.90;;
18228;SDS011;9239;50.932;3.142;2024-02-21T05:31:56;10.40;;;8.50;;
18228;SDS011;9239;50.932;3.142;2024-02-21T05:34:25;14.90;;;8.17;;
18228;SDS011;9239;50.932;3.142;2024-02-21T05:36:52;12.40;;;9.73;;
18228;SDS011;9239;50.932;3.142;2024-02-21T05:39:19;12.37;;;8.67;;
18228;SDS011;9239;50.932;3.142;2024-02-21T05:41:48;11.87;;;8.60;;
18228;SDS011;9239;50.932;3.142;2024-02-21T05:44:15;13.40;;;8.70;;
18228;SDS011;9239;50.932;3.142;2024-02-21T05:46:42;14.90;;;9.27;;
18228;SDS011;9239;50.932;3.142;2024-02-21T05:49:09;13.10;;;8.40;;
18228;SDS011;9239;50.932;3.142;2024-02-21T05:51:37;13.37;;;9.40;;
18228;SDS011;9239;50.932;3.142;2024-02-21T05:54:04;13.93;;;9.13;;
18228;SDS011;9239;50.932;3.142;2024-02-21T05:56:32;9.57;;;8.67;;
18228;SDS011;9239;50.932;3.142;2024-02-21T05:58:59;9.53;;;7.60;;
18228;SDS011;9239;50.932;3.142;2024-02-21T06:01:26;10.43;;;7.87;;
18228;SDS011;9239;50.932;3.142;2024-02-21T06:03:53;10.30;;;8.40;;
18228;SDS011;9239;50.932;3.142;2024-02-21T06:06:20;9.63;;;7.37;;
18228;SDS011;9239;50.932;3.142;2024-02-21T06:08:49;9.67;;;7.60;;
18228;SDS011;9239;50.932;3.142;2024-02-21T06:11:15;12.13;;;7.67;;
18228;SDS011;9239;50.932;3.142;2024-02-21T06:13:42;10.63;;;8.03;;
18228;SDS011;9239;50.932;3.142;2024-02-21T06:16:09;12.07;;;7.93;;
18228;SDS011;9239;50.932;3.142;2024-02-21T06:18:36;10.37;;;8.23;;
18228;SDS011;9239;50.932;3.142;2024-02-21T06:21:03;10.40;;;7.33;;
18228;SDS011;9239;50.932;3.142;2024-02-21T06:23:30;8.33;;;7.10;;
18228;SDS011;9239;50.932;3.142;2024-02-21T06:25:59;11.27;;;7.50;;
18228;SDS011;9239;50.932;3.142;2024-02-21T06:28:26;10.83;;;7.27;;
18228;SDS011;9239;50.932;3.142;2024-02-21T06:30:53;14.13;;;7.80;;
18228;SDS011;9239;50.932;3.142;2024-02-21T06:33:20;10.53;;;7.23;;
18228;SDS011;9239;50.932;3.142;2024-02-21T06:35:50;8.63;;;6.93;;
18228;SDS011;9239;50.932;3.142;2024-02-21T06:38:19;13.00;;;7.93;;
18228;SDS011;9239;50.932;3.142;2024-02-21T06:40:46;9.83;;;7.13;;
18228;SDS011;9239;50.932;3.142;2024-02-21T06:43:17;11.40;;;7.67;;
18228;SDS011;9239;50.932;3.142;2024-02-21T06:45:45;10.83;;;7.73;;
18228;SDS011;9239;50.932;3.142;2024-02-21T06:48:15;8.40;;;7.53;;
18228;SDS011;9239;50.932;3.142;2024-02-21T06:50:43;8.30;;;7.40;;
18228;SDS011;9239;50.932;3.142;2024-02-21T06:53:10;7.93;;;6.83;;
18228;SDS011;9239;50.932;3.142;2024-02-21T06:55:37;9.43;;;7.40;;
18228;SDS011;9239;50.932;3.142;2024-02-21T06:58:04;8.23;;;6.77;;
18228;SDS011;9239;50.932;3.142;2024-02-21T07:00:35;9.80;;;7.00;;
18228;SDS011;9239;50.932;3.142;2024-02-21T07:03:02;11.70;;;8.57;;
18228;SDS011;9239;50.932;3.142;2024-02-21T07:05:29;14.53;;;7.43;;
18228;SDS011;9239;50.932;3.142;2024-02-21T07:07:56;12.87;;;8.30;;
18228;SDS011;9239;50.932;3.142;2024-02-21T07:10:23;10.13;;;7.90;;
18228;SDS011;9239;50.932;3.142;2024-02-21T07:12:49;11.20;;;7.97;;
18228;SDS011;9239;50.932;3.142;2024-02-21T07:15:17;11.40;;;7.60;;
18228;SDS011;9239;50.932;3.142;2024-02-21T07:17:46;8.57;;;6.70;;
18228;SDS011;9239;50.932;3.142;2024-02-21T07:20:13;8.27;;;6.63;;
18228;SDS011;9239;50.932;3.142;2024-02-21T07:22:40;10.00;;;7.30;;
18228;SDS011;9239;50.932;3.142;2024-02-21T07:25:07;9.23;;;6.93;;
18228;SDS011;9239;50.932;3.142;2024-02-21T07:27:34;11.80;;;8.90;;
18228;SDS011;9239;50.932;3.142;2024-02-21T07:30:02;9.30;;;6.93;;
18228;SDS011;9239;50.932;3.142;2024-02-21T07:32:30;10.57;;;6.90;;
18228;SDS011;9239;50.932;3.142;2024-02-21T07:34:58;10.80;;;8.03;;
18228;SDS011;9239;50.932;3.142;2024-02-21T07:37:25;14.43;;;8.20;;
18228;SDS011;9239;50.932;3.142;2024-02-21T07:39:52;10.10;;;7.07;;
18228;SDS011;9239;50.932;3.142;2024-02-21T07:42:18;10.93;;;7.70;;
18228;SDS011;9239;50.932;3.142;2024-02-21T07:44:45;10.10;;;7.30;;
18228;SDS011;9239;50.932;3.142;2024-02-21T07:47:12;9.17;;;7.17;;
18228;SDS011;9239;50.932;3.142;2024-02-21T07:49:43;8.07;;;7.23;;
18228;SDS011;9239;50.932;3.142;2024-02-21T07:52:12;10.37;;;7.27;;
18228;SDS011;9239;50.932;3.142;2024-02-21T07:54:39;11.37;;;7.97;;
18228;SDS011;9239;50.932;3.142;2024-02-21T07:57:06;10.03;;;7.23;;
18228;SDS011;9239;50.932;3.142;2024-02-21T07:59:33;9.93;;;7.73;;
18228;SDS011;9239;50.932;3.142;2024-02-21T08:02:00;8.70;;;6.97;;
18228;SDS011;9239;50.932;3.142;2024-02-21T08:04:27;9.20;;;6.90;;
18228;SDS011;9239;50.932;3.142;2024-02-21T08:06:54;9.63;;;8.00;;
18228;SDS011;9239;50.932;3.142;2024-02-21T08:09:25;13.63;;;8.30;;
18228;SDS011;9239;50.932;3.142;2024-02-21T08:11:53;10.43;;;8.23;;
18228;SDS011;9239;50.932;3.142;2024-02-21T08:14:20;13.07;;;8.60;;
18228;SDS011;9239;50.932;3.142;2024-02-21T08:16:49;10.77;;;8.97;;
18228;SDS011;9239;50.932;3.142;2024-02-21T08:19:18;9.63;;;8.27;;
18228;SDS011;9239;50.932;3.142;2024-02-21T08:21:45;9.67;;;8.23;;
18228;SDS011;9239;50.932;3.142;2024-02-21T08:24:12;10.87;;;7.93;;
18228;SDS011;9239;50.932;3.142;2024-02-21T08:26:41;10.90;;;7.93;;
18228;SDS011;9239;50.932;3.142;2024-02-21T08:29:09;13.57;;;9.00;;
18228;SDS011;9239;50.932;3.142;2024-02-21T08:31:36;10.93;;;8.70;;
18228;SDS011;9239;50.932;3.142;2024-02-21T08:34:03;11.50;;;8.30;;
18228;SDS011;9239;50.932;3.142;2024-02-21T08:36:30;13.07;;;8.97;;
18228;SDS011;9239;50.932;3.142;2024-02-21T08:38:58;13.07;;;9.13;;
18228;SDS011;9239;50.932;3.142;2024-02-21T08:41:26;11.00;;;8.50;;
18228;SDS011;9239;50.932;3.142;2024-02-21T08:43:54;9.73;;;8.40;;
18228;SDS011;9239;50.932;3.142;2024-02-21T08:46:21;11.80;;;8.77;;
18228;SDS011;9239;50.932;3.142;2024-02-21T08:48:49;15.17;;;9.10;;
18228;SDS011;9239;50.932;3.142;2024-02-21T08:51:16;11.73;;;9.47;;
18228;SDS011;9239;50.932;3.142;2024-02-21T08:53:43;12.73;;;9.77;;
18228;SDS011;9239;50.932;3.142;2024-02-21T08:56:10;12.17;;;10.40;;
18228;SDS011;9239;50.932;3.142;2024-02-21T08:58:38;11.10;;;9.80;;
18228;SDS011;9239;50.932;3.142;2024-02-21T09:01:07;16.30;;;9.70;;
18228;SDS011;9239;50.932;3.142;2024-02-21T09:03:35;13.03;;;9.33;;
18228;SDS011;9239;50.932;3.142;2024-02-21T09:06:03;12.37;;;8.97;;
18228;SDS011;9239;50.932;3.142;2024-02-21T09:08:30;17.43;;;10.27;;
18228;SDS011;9239;50.932;3.142;2024-02-21T09:10:57;13.40;;;9.97;;
18228;SDS011;9239;50.932;3.142;2024-02-21T09:13:26;15.60;;;9.83;;
18228;SDS011;9239;50.932;3.142;2024-02-21T09:15:53;12.77;;;9.43;;
18228;SDS011;9239;50.932;3.142;2024-02-21T09:18:21;13.53;;;9.40;;
18228;SDS011;9239;50.932;3.142;2024-02-21T09:20:48;13.47;;;9.57;;
18228;SDS011;9239;50.932;3.142;2024-02-21T09:23:15;17.00;;;10.30;;
18228;SDS011;9239;50.932;3.142;2024-02-21T09:25:44;13.37;;;9.67;;
18228;SDS011;9239;50.932;3.142;2024-02-21T09:28:12;12.37;;;9.57;;
18228;SDS011;9239;50.932;3.142;2024-02-21T09:30:39;11.33;;;9.20;;
18228;SDS011;9239;50.932;3.142;2024-02-21T09:33:06;14.27;;;9.83;;
18228;SDS011;9239;50.932;3.142;2024-02-21T09:35:34;12.33;;;9.20;;
18228;SDS011;9239;50.932;3.142;2024-02-21T09:38:01;11.50;;;8.90;;
18228;SDS011;9239;50.932;3.142;2024-02-21T09:40:28;11.93;;;9.37;;
18228;SDS011;9239;50.932;3.142;2024-02-21T09:42:59;11.47;;;8.57;;
18228;SDS011;9239;50.932;3.142;2024-02-21T09:45:30;10.63;;;7.73;;
18228;SDS011;9239;50.932;3.142;2024-02-21T09:48:04;13.73;;;9.30;;
18228;SDS011;9239;50.932;3.142;2024-02-21T09:50:51;12.43;;;8.57;;
18228;SDS011;9239;50.932;3.142;2024-02-21T09:53:20;12.10;;;9.13;;
18228;SDS011;9239;50.932;3.142;2024-02-21T09:55:50;13.30;;;8.43;;
18228;SDS011;9239;50.932;3.142;2024-02-21T09:58:18;12.73;;;9.33;;
18228;SDS011;9239;50.932;3.142;2024-02-21T10:00:45;11.03;;;8.40;;
18228;SDS011;9239;50.932;3.142;2024-02-21T10:03:12;9.77;;;8.30;;
18228;SDS011;9239;50.932;3.142;2024-02-21T10:05:45;12.27;;;8.17;;
18228;SDS011;9239;50.932;3.142;2024-02-21T10:08:16;9.93;;;8.63;;
18228;SDS011;9239;50.932;3.142;2024-02-21T10:10:43;11.43;;;7.93;;
18228;SDS011;9239;50.932;3.142;2024-02-21T10:13:21;11.93;;;8.40;;
18228;SDS011;9239;50.932;3.142;2024-02-21T10:16:00;10.97;;;7.77;;
18228;SDS011;9239;50.932;3.142;2024-02-21T10:18:27;10.83;;;8.20;;
18228;SDS011;9239;50.932;3.142;2024-02-21T10:20:59;9.80;;;8.00;;
18228;SDS011;9239;50.932;3.142;2024-02-21T10:23:29;8.57;;;7.13;;
18228;SDS011;9239;50.932;3.142;2024-02-21T10:26:04;11.07;;;6.87;;
18228;SDS011;9239;50.932;3.142;2024-02-21T10:28:31;10.13;;;6.40;;
18228;SDS011;9239;50.932;3.142;2024-02-21T10:30:58;11.53;;;6.83;;
18228;SDS011;9239;50.932;3.142;2024-02-21T10:33:25;10.13;;;7.20;;
18228;SDS011;9239;50.932;3.142;2024-02-21T10:35:53;12.93;;;7.53;;
18228;SDS011;9239;50.932;3.142;2024-02-21T10:38:20;11.23;;;7.77;;
18228;SDS011;9239;50.932;3.142;2024-02-21T10:40:48;7.97;;;7.10;;
18228;SDS011;9239;50.932;3.142;2024-02-21T10:43:18;8.23;;;7.50;;
18228;SDS011;9239;50.932;3.142;2024-02-21T10:45:46;11.03;;;8.07;;
18228;SDS011;9239;50.932;3.142;2024-02-21T10:48:15;7.70;;;6.87;;
18228;SDS011;9239;50.932;3.142;2024-02-21T10:50:53;10.23;;;7.67;;
18228;SDS011;9239;50.932;3.142;2024-02-21T10:53:25;9.60;;;7.60;;
18228;SDS011;9239;50.932;3.142;2024-02-21T10:56:01;13.00;;;6.93;;
18228;SDS011;9239;50.932;3.142;2024-02-21T10:58:37;8.90;;;7.27;;
18228;SDS011;9239;50.932;3.142;2024-02-21T11:01:05;9.43;;;8.17;;
18228;SDS011;9239;50.932;3.142;2024-02-21T11:03:33;9.87;;;7.63;;
18228;SDS011;9239;50.932;3.142;2024-02-21T11:06:01;9.90;;;6.97;;
18228;SDS011;9239;50.932;3.142;2024-02-21T11:08:30;9.90;;;7.87;;
18228;SDS011;9239;50.932;3.142;2024-02-21T11:10:57;10.10;;;7.97;;
18228;SDS011;9239;50.932;3.142;2024-02-21T11:13:34;9.07;;;7.80;;
18228;SDS011;9239;50.932;3.142;2024-02-21T11:16:08;8.63;;;7.73;;
18228;SDS011;9239;50.932;3.142;2024-02-21T11:18:36;11.77;;;8.47;;
18228;SDS011;9239;50.932;3.142;2024-02-21T11:21:03;8.83;;;7.57;;
18228;SDS011;9239;50.932;3.142;2024-02-21T11:23:31;8.53;;;7.60;;
18228;SDS011;9239;50.932;3.142;2024-02-21T11:26:05;10.67;;;7.80;;
18228;SDS011;9239;50.932;3.142;2024-02-21T11:28:33;8.40;;;7.63;;
18228;SDS011;9239;50.932;3.142;2024-02-21T11:31:06;8.83;;;7.40;;
18228;SDS011;9239;50.932;3.142;2024-02-21T11:33:34;9.57;;;7.67;;
18228;SDS011;9239;50.932;3.142;2024-02-21T11:36:01;8.83;;;6.97;;
18228;SDS011;9239;50.932;3.142;2024-02-21T11:38:29;8.00;;;6.63;;
18228;SDS011;9239;50.932;3.142;2024-02-21T11:40:56;7.97;;;6.93;;
18228;SDS011;9239;50.932;3.142;2024-02-21T11:43:23;8.10;;;7.17;;
18228;SDS011;9239;50.932;3.142;2024-02-21T11:45:51;10.63;;;6.67;;
18228;SDS011;9239;50.932;3.142;2024-02-21T11:48:25;9.70;;;7.53;;
18228;SDS011;9239;50.932;3.142;2024-02-21T11:50:52;12.40;;;7.77;;
18228;SDS011;9239;50.932;3.142;2024-02-21T11:53:21;13.43;;;7.53;;
18228;SDS011;9239;50.932;3.142;2024-02-21T11:55:48;10.93;;;7.57;;
18228;SDS011;9239;50.932;3.142;2024-02-21T11:58:16;7.83;;;7.00;;
18228;SDS011;9239;50.932;3.142;2024-02-21T12:00:43;7.17;;;6.47;;
18228;SDS011;9239;50.932;3.142;2024-02-21T12:03:11;7.93;;;7.13;;
18228;SDS011;9239;50.932;3.142;2024-02-21T12:05:38;6.90;;;6.20;;
18228;SDS011;9239;50.932;3.142;2024-02-21T12:08:05;9.00;;;6.80;;
18228;SDS011;9239;50.932;3.142;2024-02-21T12:10:35;8.73;;;6.80;;
18228;SDS011;9239;50.932;3.142;2024-02-21T12:13:06;6.90;;;6.20;;
18228;SDS011;9239;50.932;3.142;2024-02-21T12:15:33;9.50;;;6.50;;
18228;SDS011;9239;50.932;3.142;2024-02-21T12:18:01;9.50;;;6.93;;
18228;SDS011;9239;50.932;3.142;2024-02-21T12:20:30;7.27;;;5.83;;
18228;SDS011;9239;50.932;3.142;2024-02-21T12:22:59;7.33;;;6.10;;
18228;SDS011;9239;50.932;3.142;2024-02-21T12:25:27;7.13;;;5.77;;
18228;SDS011;9239;50.932;3.142;2024-02-21T12:27:54;6.43;;;5.73;;
18228;SDS011;9239;50.932;3.142;2024-02-21T12:30:21;9.27;;;5.63;;
18228;SDS011;9239;50.932;3.142;2024-02-21T12:32:48;6.10;;;5.50;;
18228;SDS011;9239;50.932;3.142;2024-02-21T12:35:15;9.90;;;6.23;;
18228;SDS011;9239;50.932;3.142;2024-02-21T12:37:43;9.23;;;5.00;;
18228;SDS011;9239;50.932;3.142;2024-02-21T12:40:11;5.37;;;4.87;;
18228;SDS011;9239;50.932;3.142;2024-02-21T12:42:38;6.17;;;5.07;;
18228;SDS011;9239;50.932;3.142;2024-02-21T12:45:05;6.47;;;4.93;;
18228;SDS011;9239;50.932;3.142;2024-02-21T12:47:33;7.17;;;5.77;;
18228;SDS011;9239;50.932;3.142;2024-02-21T12:49:59;6.00;;;5.40;;
18228;SDS011;9239;50.932;3.142;2024-02-21T12:52:28;9.17;;;5.67;;
18228;SDS011;9239;50.932;3.142;2024-02-21T12:54:57;8.33;;;5.97;;
18228;SDS011;9239;50.932;3.142;2024-02-21T12:57:24;8.73;;;5.50;;
18228;SDS011;9239;50.932;3.142;2024-02-21T12:59:51;6.47;;;5.40;;
18228;SDS011;9239;50.932;3.142;2024-02-21T13:02:18;6.57;;;5.97;;
18228;SDS011;9239;50.932;3.142;2024-02-21T13:04:46;6.97;;;5.40;;
18228;SDS011;9239;50.932;3.142;2024-02-21T13:07:13;6.90;;;5.73;;
18228;SDS011;9239;50.932;3.142;2024-02-21T13:09:40;8.33;;;6.50;;
18228;SDS011;9239;50.932;3.142;2024-02-21T13:12:08;7.97;;;6.30;;
18228;SDS011;9239;50.932;3.142;2024-02-21T13:14:35;7.83;;;5.97;;
18228;SDS011;9239;50.932;3.142;2024-02-21T13:17:04;8.20;;;6.77;;
18228;SDS011;9239;50.932;3.142;2024-02-21T13:19:31;7.23;;;5.77;;
18228;SDS011;9239;50.932;3.142;2024-02-21T13:21:58;9.63;;;6.50;;
18228;SDS011;9239;50.932;3.142;2024-02-21T13:24:25;7.30;;;6.60;;
18228;SDS011;9239;50.932;3.142;2024-02-21T13:26:52;8.73;;;6.60;;
18228;SDS011;9239;50.932;3.142;2024-02-21T13:29:20;7.40;;;6.70;;
18228;SDS011;9239;50.932;3.142;2024-02-21T13:31:47;10.40;;;7.00;;
18228;SDS011;9239;50.932;3.142;2024-02-21T13:34:15;7.67;;;6.13;;
18228;SDS011;9239;50.932;3.142;2024-02-21T13:36:42;8.13;;;6.97;;
18228;SDS011;9239;50.932;3.142;2024-02-21T13:39:09;8.03;;;7.03;;
18228;SDS011;9239;50.932;3.142;2024-02-21T13:41:38;7.03;;;6.37;;
18228;SDS011;9239;50.932;3.142;2024-02-21T13:44:05;10.50;;;6.57;;
18228;SDS011;9239;50.932;3.142;2024-02-21T13:46:33;7.97;;;6.90;;
18228;SDS011;9239;50.932;3.142;2024-02-21T13:49:02;7.60;;;6.80;;
18228;SDS011;9239;50.932;3.142;2024-02-21T13:51:31;7.87;;;6.97;;
18228;SDS011;9239;50.932;3.142;2024-02-21T13:53:59;7.37;;;6.63;;
18228;SDS011;9239;50.932;3.142;2024-02-21T13:56:26;8.27;;;6.63;;
18228;SDS011;9239;50.932;3.142;2024-02-21T13:58:53;8.93;;;6.60;;
18228;SDS011;9239;50.932;3.142;2024-02-21T14:01:20;10.10;;;7.03;;
18228;SDS011;9239;50.932;3.142;2024-02-21T14:03:48;7.53;;;6.80;;
18228;SDS011;9239;50.932;3.142;2024-02-21T14:06:15;10.13;;;7.50;;
18228;SDS011;9239;50.932;3.142;2024-02-21T14:08:42;11.43;;;7.33;;
18228;SDS011;9239;50.932;3.142;2024-02-21T14:11:09;9.60;;;7.33;;
18228;SDS011;9239;50.932;3.142;2024-02-21T14:13:36;9.50;;;7.30;;
18228;SDS011;9239;50.932;3.142;2024-02-21T14:16:03;8.60;;;7.67;;
18228;SDS011;9239;50.932;3.142;2024-02-21T14:18:36;13.17;;;7.67;;
18228;SDS011;9239;50.932;3.142;2024-02-21T14:21:07;9.53;;;8.47;;
18228;SDS011;9239;50.932;3.142;2024-02-21T14:23:35;10.87;;;7.50;;
18228;SDS011;9239;50.932;3.142;2024-02-21T14:26:02;9.93;;;7.70;;
18228;SDS011;9239;50.932;3.142;2024-02-21T14:28:29;8.93;;;8.10;;
18228;SDS011;9239;50.932;3.142;2024-02-21T14:30:56;10.63;;;7.80;;
18228;SDS011;9239;50.932;3.142;2024-02-21T14:33:25;8.70;;;7.40;;
18228;SDS011;9239;50.932;3.142;2024-02-21T14:35:52;10.43;;;8.33;;
18228;SDS011;9239;50.932;3.142;2024-02-21T14:38:20;9.23;;;8.00;;
18228;SDS011;9239;50.932;3.142;2024-02-21T14:40:47;17.77;;;16.07;;
18228;SDS011;9239;50.932;3.142;2024-02-21T14:43:14;10.27;;;8.80;;
18228;SDS011;9239;50.932;3.142;2024-02-21T14:45:43;9.97;;;8.03;;
18228;SDS011;9239;50.932;3.142;2024-02-21T14:48:12;11.50;;;8.57;;
18228;SDS011;9239;50.932;3.142;2024-02-21T14:50:39;13.20;;;9.07;;
18228;SDS011;9239;50.932;3.142;2024-02-21T14:53:07;11.07;;;8.23;;
18228;SDS011;9239;50.932;3.142;2024-02-21T14:55:35;10.47;;;8.90;;
18228;SDS011;9239;50.932;3.142;2024-02-21T14:58:05;11.27;;;8.70;;